Time;durP1;ratioP1;P1;durP2;ratioP2;P2;SDS_P1;SDS_P2;PMS_P1;PMS_P2;Temp;Humidity;BMP_temperature;BMP_pressure;BME280_temperature;BME280_humidity;BME280_pressure;Samples;Min_cycle;Max_cycle;Signal;HPM_P1;HPM_P2
2023/01/21 00:01:09;;;;;;;0.50;0.50;;;;;;;1.09;90.86;101866.16;5104237;28;20051;-73
2023/01/21 00:03:35;;;;;;;0.50;0.50;;;;;;;1.09;90.76;101868.72;5103804;28;20103;-74
2023/01/21 00:06:01;;;;;;;0.50;0.50;;;;;;;1.06;90.73;101869.44;5085918;28;20126;-72
2023/01/21 00:08:26;;;;;;;0.50;0.50;;;;;;;1.05;90.50;101879.59;5103896;28;20020;-74
2023/01/21 00:10:52;;;;;;;0.60;0.60;;;;;;;0.98;90.71;101874.13;5085586;28;20039;-74
2023/01/21 00:13:17;;;;;;;0.50;0.50;;;;;;;0.96;90.70;101877.38;5103969;28;20035;-73
2023/01/21 00:15:43;;;;;;;0.65;0.65;;;;;;;0.98;90.70;101881.81;5103774;28;20051;-74
2023/01/21 00:18:09;;;;;;;0.50;0.50;;;;;;;1.00;90.60;101887.00;5103841;28;20023;-75
2023/01/21 00:20:34;;;;;;;0.50;0.50;;;;;;;0.98;90.45;101883.47;5103902;28;20087;-74
2023/01/21 00:23:00;;;;;;;0.50;0.50;;;;;;;0.92;90.40;101889.16;5103722;28;20047;-74
2023/01/21 00:25:26;;;;;;;0.50;0.50;;;;;;;0.90;90.53;101895.84;5103688;28;20016;-74
2023/01/21 00:27:51;;;;;;;0.60;0.60;;;;;;;0.86;90.34;101889.66;5103513;28;20020;-74
2023/01/21 00:30:17;;;;;;;0.57;0.57;;;;;;;0.92;90.09;101904.50;5103633;28;20062;-75
2023/01/21 00:32:42;;;;;;;0.50;0.50;;;;;;;0.93;89.99;101906.25;5085384;28;20020;-74
2023/01/21 00:35:08;;;;;;;0.50;0.50;;;;;;;0.91;89.49;101909.50;5087088;28;20051;-75
2023/01/21 00:37:33;;;;;;;0.60;0.60;;;;;;;0.86;89.42;101915.22;5107899;28;20024;-74
2023/01/21 00:39:59;;;;;;;0.50;0.50;;;;;;;0.78;89.77;101901.16;5106155;28;20055;-74
2023/01/21 00:42:26;;;;;;;0.50;0.50;;;;;;;0.82;89.84;101918.44;5105841;28;20028;-74
2023/01/21 00:44:52;;;;;;;0.50;0.50;;;;;;;0.86;89.76;101920.34;5107181;28;20030;-75
2023/01/21 00:47:18;;;;;;;1.00;1.00;;;;;;;0.82;89.96;101917.53;5107014;28;20059;-74
2023/01/21 00:49:43;;;;;;;1.48;1.48;;;;;;;0.84;89.96;101931.28;5107213;28;20061;-75
2023/01/21 00:52:08;;;;;;;0.60;0.60;;;;;;;0.83;89.54;101935.53;5088853;28;20032;-75
2023/01/21 00:54:34;;;;;;;0.60;0.60;;;;;;;0.77;89.57;101929.19;5105621;28;20166;-73
2023/01/21 00:56:59;;;;;;;0.60;0.60;;;;;;;0.73;89.32;101923.03;5106908;28;20420;-73
2023/01/21 00:59:27;;;;;;;0.57;0.57;;;;;;;0.78;89.36;101939.50;5105601;28;20498;-73
2023/01/21 01:01:53;;;;;;;0.88;0.88;;;;;;;0.81;89.47;101946.47;5088589;28;20016;-73
2023/01/21 01:04:19;;;;;;;0.50;0.50;;;;;;;0.80;89.20;101949.81;5088290;28;20024;-74
2023/01/21 01:06:45;;;;;;;0.52;0.52;;;;;;;0.80;88.91;101955.81;5106924;28;20031;-73
2023/01/21 01:09:11;;;;;;;0.55;0.55;;;;;;;0.79;89.13;101958.28;5088960;28;20020;-73
2023/01/21 01:11:37;;;;;;;0.60;0.60;;;;;;;0.79;89.22;101973.63;5105302;28;20028;-74
2023/01/21 01:14:04;;;;;;;0.50;0.50;;;;;;;0.71;88.95;101961.28;5106493;28;20028;-74
2023/01/21 01:16:29;;;;;;;0.50;0.50;;;;;;;0.65;88.90;101965.16;5106904;28;20028;-74
2023/01/21 01:18:55;;;;;;;0.50;0.50;;;;;;;0.60;88.68;101977.69;5106972;28;20100;-74
2023/01/21 01:21:23;;;;;;;0.70;0.70;;;;;;;0.57;88.72;101974.94;5107044;28;20038;-73
2023/01/21 01:23:51;;;;;;;0.57;0.57;;;;;;;0.65;88.70;101993.28;5106870;28;20080;-73
2023/01/21 01:26:18;;;;;;;0.52;0.52;;;;;;;0.53;88.55;101975.56;5105634;28;20095;-73
2023/01/21 01:28:44;;;;;;;0.50;0.50;;;;;;;0.65;88.29;102001.84;5088298;28;20106;-74
2023/01/21 01:31:12;;;;;;;1.55;1.52;;;;;;;0.64;88.06;101994.06;5088171;28;20035;-75
2023/01/21 01:33:38;;;;;;;0.60;0.60;;;;;;;0.62;87.72;102001.66;5104944;28;20035;-75
2023/01/21 01:36:11;;;;;;;0.60;0.60;;;;;;;0.57;87.93;102009.06;5106273;28;20024;-74
2023/01/21 01:38:37;;;;;;;0.60;0.60;;;;;;;0.57;88.06;102006.50;5106305;28;20080;-74
2023/01/21 01:41:02;;;;;;;1.83;1.77;;;;;;;0.59;87.77;102010.00;5105763;28;20118;-74
2023/01/21 01:43:46;;;;;;;0.50;0.50;;;;;;;0.57;87.88;102018.38;5106142;28;20565;-74
2023/01/21 01:46:12;;;;;;;0.60;0.60;;;;;;;0.56;87.91;102024.31;5086422;28;20035;-74
2023/01/21 01:48:38;;;;;;;0.50;0.50;;;;;;;0.55;87.89;102027.63;5105629;28;20077;-75
2023/01/21 01:51:06;;;;;;;0.60;0.60;;;;;;;0.45;87.93;102019.44;5105848;28;20020;-74
2023/01/21 01:53:34;;;;;;;0.73;0.73;;;;;;;0.49;88.08;102023.94;5104369;28;20032;-74
2023/01/21 01:56:00;;;;;;;0.50;0.50;;;;;;;0.51;87.95;102030.81;5105620;28;20035;-74
2023/01/21 01:58:29;;;;;;;0.60;0.60;;;;;;;0.48;87.58;102024.72;5104532;28;20020;-74
2023/01/21 02:00:55;;;;;;;0.60;0.60;;;;;;;0.38;87.98;102021.53;5106092;28;20102;-73
2023/01/21 02:06:05;;;;;;;0.50;0.50;;;;;;;0.56;88.08;102048.16;5105688;28;20031;-74
2023/01/21 02:08:33;;;;;;;0.60;0.60;;;;;;;0.54;87.77;102043.78;5105706;28;20024;-74
2023/01/21 02:10:59;;;;;;;0.60;0.60;;;;;;;0.55;87.78;102050.63;5087194;28;20066;-75
2023/01/21 02:13:28;;;;;;;0.50;0.50;;;;;;;0.55;87.81;102048.97;5105594;28;20088;-75
2023/01/21 02:16:17;;;;;;;0.50;0.50;;;;;;;0.55;87.94;102051.53;5104172;28;20396;-73
2023/01/21 02:19:00;;;;;;;0.50;0.50;;;;;;;0.44;87.90;102033.00;5105368;28;20210;-75
2023/01/21 02:21:35;;;;;;;0.55;0.55;;;;;;;0.56;87.87;102057.53;5105393;28;20020;-74
2023/01/21 02:24:19;;;;;;;0.50;0.50;;;;;;;0.60;87.65;102062.03;5105266;28;20073;-74
2023/01/21 02:26:50;;;;;;;0.75;0.75;;;;;;;0.60;87.57;102068.03;5086830;28;20082;-74
2023/01/21 02:29:31;;;;;;;0.70;0.70;;;;;;;0.60;87.36;102070.59;5105269;28;20083;-75
2023/01/21 02:32:26;;;;;;;0.50;0.50;;;;;;;0.56;87.36;102070.31;5105083;28;20056;-74
2023/01/21 02:35:08;;;;;;;0.60;0.60;;;;;;;0.54;87.13;102069.34;5065893;28;20532;-75
2023/01/21 02:38:08;;;;;;;0.47;0.47;;;;;;;0.54;87.01;102079.56;5104993;28;20028;-74
2023/01/21 02:40:49;;;;;;;0.50;0.50;;;;;;;0.55;87.14;102094.09;5104709;28;20048;-75
2023/01/21 02:43:35;;;;;;;1.75;1.55;;;;;;;0.45;86.85;102088.41;5104943;28;20096;-74
2023/01/21 02:46:27;;;;;;;0.60;0.60;;;;;;;0.46;87.23;102091.88;5105057;28;20035;-74
2023/01/21 02:49:10;;;;;;;0.60;0.60;;;;;;;0.45;86.82;102100.31;5104756;28;20024;-73
2023/01/21 02:51:35;;;;;;;0.60;0.60;;;;;;;0.41;87.00;102103.47;5103575;28;20052;-73
2023/01/21 02:54:30;;;;;;;0.50;0.50;;;;;;;0.34;86.93;102099.66;5103237;28;20028;-73
2023/01/21 02:56:55;;;;;;;0.60;0.60;;;;;;;0.31;87.22;102097.81;5086306;28;20119;-74
2023/01/21 02:59:21;;;;;;;0.60;0.60;;;;;;;0.38;87.36;102108.41;5104663;28;20081;-73
2023/01/21 03:02:02;;;;;;;0.60;0.60;;;;;;;0.44;87.43;102119.88;5104692;28;20024;-73
2023/01/21 03:05:02;;;;;;;0.50;0.50;;;;;;;0.48;87.40;102120.94;5104613;28;20107;-73
2023/01/21 03:07:33;;;;;;;0.50;0.50;;;;;;;0.51;87.39;102120.25;5104583;28;20028;-74
2023/01/21 03:10:21;;;;;;;0.60;0.60;;;;;;;0.53;87.22;102129.78;5086353;28;20036;-74
2023/01/21 03:13:05;;;;;;;0.60;0.60;;;;;;;0.52;87.05;102130.56;5102975;28;20043;-73
2023/01/21 03:18:44;;;;;;;0.68;0.68;;;;;;;0.44;86.92;102132.66;5104550;28;20062;-73
2023/01/21 03:21:16;;;;;;;1.58;1.48;;;;;;;0.45;86.85;102149.75;5104470;28;20032;-73
2023/01/21 03:23:48;;;;;;;0.60;0.60;;;;;;;0.40;86.84;102148.59;5104522;28;20023;-73
2023/01/21 03:26:19;;;;;;;0.60;0.60;;;;;;;0.42;86.59;102147.00;5104149;28;20077;-74
2023/01/21 03:28:48;;;;;;;0.50;0.50;;;;;;;0.24;86.58;102137.41;5104254;28;20020;-73
2023/01/21 03:31:31;;;;;;;0.52;0.52;;;;;;;0.28;86.75;102158.94;5104326;28;20038;-73
2023/01/21 03:34:01;;;;;;;0.55;0.55;;;;;;;0.22;86.70;102159.41;5086362;28;20021;-74
2023/01/21 03:36:33;;;;;;;0.50;0.50;;;;;;;0.31;86.55;102173.56;5086632;28;20028;-73
2023/01/21 03:39:01;;;;;;;;;;;;;;;0.26;86.50;102174.97;5104774;28;20085;-73
2023/01/21 03:41:32;;;;;;;0.60;0.60;;;;;;;0.18;86.58;102169.34;5104070;28;20621;-73
2023/01/21 03:43:59;;;;;;;1.08;1.05;;;;;;;0.14;86.64;102165.75;5104090;28;20020;-73
2023/01/21 03:46:40;;;;;;;0.60;0.60;;;;;;;0.18;86.76;102182.13;5104066;28;20403;-73
2023/01/21 03:49:29;;;;;;;0.50;0.50;;;;;;;0.11;86.93;102186.84;5104183;28;20050;-73
2023/01/21 03:51:58;;;;;;;0.50;0.50;;;;;;;0.12;87.03;102195.41;5102802;28;20056;-73
2023/01/21 03:54:24;;;;;;;0.50;0.50;;;;;;;0.19;87.15;102206.91;5103796;28;20034;-73
2023/01/21 03:56:49;;;;;;;0.50;0.50;;;;;;;0.18;87.23;102200.00;5104005;28;20024;-73
2023/01/21 03:59:14;;;;;;;0.60;0.60;;;;;;;0.23;87.32;102209.75;5085767;28;20024;-73
2023/01/21 04:01:40;;;;;;;0.50;0.50;;;;;;;0.27;87.05;102213.38;5104061;28;20027;-74
2023/01/21 04:04:06;;;;;;;0.60;0.60;;;;;;;0.26;87.12;102220.97;5085667;28;20088;-74
2023/01/21 04:06:32;;;;;;;0.60;0.60;;;;;;;0.25;87.11;102217.50;5103785;28;20055;-74
2023/01/21 04:08:58;;;;;;;0.55;0.55;;;;;;;0.26;87.03;102216.72;5085738;28;20024;-73
2023/01/21 04:11:24;;;;;;;1.35;1.05;;;;;;;0.24;87.03;102215.72;5106319;28;20478;-73
2023/01/21 04:13:49;;;;;;;0.50;0.50;;;;;;;0.21;87.00;102212.97;5108059;28;20031;-74
2023/01/21 04:16:15;;;;;;;0.50;0.50;;;;;;;0.24;86.79;102226.84;5107674;28;20468;-74
2023/01/21 04:18:40;;;;;;;2.20;2.00;;;;;;;0.25;86.84;102240.50;5107728;28;20378;-74
2023/01/21 04:21:05;;;;;;;0.60;0.60;;;;;;;0.26;86.58;102238.84;5089506;28;20073;-74
2023/01/21 04:23:31;;;;;;;0.50;0.50;;;;;;;0.23;86.58;102244.63;5107639;28;20037;-75
2023/01/21 04:25:56;;;;;;;0.60;0.60;;;;;;;0.19;86.41;102240.13;5107379;28;20020;-73
2023/01/21 04:28:22;;;;;;;0.57;0.57;;;;;;;0.14;86.64;102236.38;5089272;28;20078;-75
2023/01/21 04:30:48;;;;;;;0.50;0.50;;;;;;;0.15;86.55;102249.25;5106780;28;20042;-76
2023/01/21 04:33:14;;;;;;;0.60;0.60;;;;;;;0.14;86.82;102256.81;5106205;28;20028;-75
2023/01/21 04:35:39;;;;;;;0.70;0.70;;;;;;;0.07;86.73;102250.41;5106160;28;20020;-74
2023/01/21 04:38:05;;;;;;;0.60;0.60;;;;;;;0.14;86.63;102252.59;5106994;28;20028;-74
2023/01/21 04:40:30;;;;;;;0.60;0.60;;;;;;;0.12;86.71;102269.47;5107326;28;20364;-76
2023/01/21 04:42:56;;;;;;;0.60;0.60;;;;;;;0.04;86.89;102258.78;5107186;28;20034;-74
2023/01/21 04:45:21;;;;;;;0.60;0.60;;;;;;;0.13;86.92;102270.38;5107238;28;20030;-74
2023/01/21 04:47:47;;;;;;;15.50;4.07;;;;;;;0.16;86.75;102258.66;5107213;28;20034;-74
2023/01/21 04:50:13;;;;;;;0.60;0.60;;;;;;;0.15;86.83;102262.00;5107226;28;20103;-74
2023/01/21 04:52:39;;;;;;;0.57;0.57;;;;;;;0.14;86.91;102257.69;5105740;28;20023;-73
2023/01/21 04:55:05;;;;;;;0.95;0.82;;;;;;;0.15;86.88;102264.56;5107263;28;20027;-73
2023/01/21 04:57:30;;;;;;;0.60;0.60;;;;;;;0.15;86.88;102267.13;5106880;28;20043;-74
2023/01/21 04:59:56;;;;;;;0.50;0.50;;;;;;;0.16;86.85;102268.03;5088915;28;20020;-73
2023/01/21 05:02:21;;;;;;;0.60;0.60;;;;;;;0.18;86.86;102264.75;5105595;28;20016;-73
2023/01/21 05:04:47;;;;;;;0.60;0.60;;;;;;;0.22;86.72;102276.94;5106660;28;20027;-72
2023/01/21 05:07:13;;;;;;;0.52;0.52;;;;;;;0.23;86.59;102275.28;5106926;28;20495;-73
2023/01/21 05:09:39;;;;;;;0.50;0.50;;;;;;;0.20;86.47;102287.84;5105524;28;20031;-73
2023/01/21 05:12:05;;;;;;;0.60;0.60;;;;;;;0.17;86.38;102283.44;5106357;28;20025;-73
2023/01/21 05:14:30;;;;;;;0.50;0.50;;;;;;;0.15;86.55;102285.00;5106860;28;20029;-73
2023/01/21 05:16:57;;;;;;;0.50;0.50;;;;;;;0.15;86.55;102297.78;5106490;28;20028;-73
2023/01/21 05:19:22;;;;;;;0.60;0.60;;;;;;;0.14;86.34;102298.56;5105360;28;20169;-73
2023/01/21 05:21:47;;;;;;;0.50;0.50;;;;;;;0.09;86.27;102302.47;5088306;28;20579;-73
2023/01/21 05:24:13;;;;;;;0.50;0.50;;;;;;;0.09;86.41;102305.94;5106408;28;20019;-72
2023/01/21 05:26:38;;;;;;;0.63;0.63;;;;;;;0.06;86.49;102303.19;5106138;28;20190;-72
2023/01/21 05:29:04;;;;;;;0.60;0.60;;;;;;;0.03;86.29;102315.75;5105087;28;20032;-73
2023/01/21 05:31:29;;;;;;;0.50;0.50;;;;;;;0.03;86.42;102317.41;5106333;28;20054;-71
2023/01/21 05:33:55;;;;;;;0.80;0.80;;;;;;;0.01;86.28;102316.41;5106231;28;20060;-71
2023/01/21 05:36:21;;;;;;;0.70;0.70;;;;;;;-0.04;86.38;102313.56;5106131;28;20028;-72
2023/01/21 05:38:46;;;;;;;0.52;0.52;;;;;;;-0.06;86.46;102313.47;5106124;28;20071;-72
2023/01/21 05:41:12;;;;;;;0.60;0.60;;;;;;;-0.01;86.48;102319.75;5105784;28;20099;-72
2023/01/21 05:43:37;;;;;;;0.60;0.60;;;;;;;-0.02;86.58;102317.97;5104971;28;20083;-72
2023/01/21 05:46:02;;;;;;;0.60;0.60;;;;;;;-0.02;86.62;102325.63;5106188;28;20020;-73
2023/01/21 05:48:28;;;;;;;0.60;0.60;;;;;;;-0.04;86.70;102321.22;5106099;28;20377;-73
2023/01/21 05:50:53;;;;;;;0.60;0.60;;;;;;;0.01;86.59;102326.63;5106116;28;20587;-72
2023/01/21 05:53:19;;;;;;;0.50;0.50;;;;;;;0.07;86.65;102327.03;5106002;28;20032;-72
2023/01/21 05:55:45;;;;;;;0.50;0.50;;;;;;;0.15;86.74;102324.97;5105903;28;20061;-72
2023/01/21 05:58:10;;;;;;;0.60;0.60;;;;;;;0.16;86.63;102327.63;5105807;28;20449;-73
2023/01/21 06:00:36;;;;;;;0.50;0.50;;;;;;;0.14;86.03;102329.22;5105815;28;20024;-73
2023/01/21 06:03:02;;;;;;;0.60;0.60;;;;;;;0.09;86.11;102328.03;5105723;28;20028;-73
2023/01/21 06:05:28;;;;;;;0.50;0.50;;;;;;;0.04;86.23;102327.72;5105572;28;20028;-72
2023/01/21 06:07:53;;;;;;;0.60;0.60;;;;;;;-0.06;86.30;102316.00;5105551;28;20467;-73
2023/01/21 06:10:19;;;;;;;0.60;0.60;;;;;;;0.02;86.34;102325.88;5105634;28;20020;-73
2023/01/21 06:12:45;;;;;;;0.60;0.60;;;;;;;0.03;86.01;102331.06;5105369;28;20028;-74
2023/01/21 06:15:12;;;;;;;1.35;1.35;;;;;;;-0.01;86.17;102347.84;5104302;28;20433;-74
2023/01/21 06:17:39;;;;;;;0.60;0.60;;;;;;;0.01;86.29;102347.06;5087130;28;20502;-73
2023/01/21 06:20:06;;;;;;;0.98;0.98;;;;;;;-0.03;86.29;102354.50;5105497;28;20024;-73
2023/01/21 06:22:31;;;;;;;0.60;0.60;;;;;;;0.02;86.24;102351.41;5105531;28;20099;-75
2023/01/21 06:24:57;;;;;;;1.25;1.25;;;;;;;-0.02;86.04;102357.97;5103994;28;20071;-73
2023/01/21 06:27:22;;;;;;;0.60;0.60;;;;;;;-0.08;86.31;102355.88;5103982;28;20490;-74
2023/01/21 06:29:48;;;;;;;0.50;0.50;;;;;;;-0.02;86.29;102369.03;5087554;28;20043;-74
2023/01/21 06:32:13;;;;;;;0.60;0.60;;;;;;;0.03;86.15;102371.94;5104882;28;20381;-73
2023/01/21 06:34:39;;;;;;;0.60;0.60;;;;;;;-0.02;85.94;102366.50;5105502;28;20076;-73
2023/01/21 06:37:04;;;;;;;0.60;0.60;;;;;;;0.07;85.80;102383.22;5105049;28;20424;-73
2023/01/21 06:39:29;;;;;;;0.85;0.85;;;;;;;0.05;85.90;102388.22;5087053;28;20396;-73
2023/01/21 06:41:55;;;;;;;0.60;0.60;;;;;;;0.05;86.00;102390.78;5103517;28;20048;-73
2023/01/21 06:44:20;;;;;;;0.60;0.60;;;;;;;0.05;85.82;102388.22;5104881;28;20383;-74
2023/01/21 06:46:46;;;;;;;0.60;0.60;;;;;;;0.06;85.57;102401.91;5103542;28;20020;-73
2023/01/21 06:49:11;;;;;;;0.60;0.60;;;;;;;0.04;85.53;102401.78;5104897;28;20020;-72
2023/01/21 06:51:36;;;;;;;0.60;0.60;;;;;;;0.04;85.74;102406.00;5086577;28;20024;-73
2023/01/21 06:54:02;;;;;;;0.73;0.73;;;;;;;0.06;85.79;102409.56;5104585;28;20471;-74
2023/01/21 06:56:27;;;;;;;0.60;0.60;;;;;;;0.07;85.66;102411.31;5104572;28;20020;-73
2023/01/21 06:58:53;;;;;;;0.70;0.70;;;;;;;0.06;85.44;102409.56;5086561;28;20061;-74
2023/01/21 07:01:18;;;;;;;0.60;0.60;;;;;;;-0.04;85.34;102401.28;5104787;28;20403;-73
2023/01/21 07:03:43;;;;;;;0.70;0.70;;;;;;;0.03;85.51;102409.34;5104868;28;20024;-73
2023/01/21 07:06:09;;;;;;;0.65;0.65;;;;;;;-0.03;85.63;102413.25;5104516;28;20023;-72
2023/01/21 07:08:34;;;;;;;0.60;0.60;;;;;;;0.02;85.58;102417.81;5104648;28;20036;-73
2023/01/21 07:11:00;;;;;;;0.60;0.60;;;;;;;0.07;85.65;102418.97;5104401;28;20020;-73
2023/01/21 07:13:25;;;;;;;0.60;0.60;;;;;;;0.10;85.43;102419.19;5104545;28;20024;-73
2023/01/21 07:15:50;;;;;;;0.60;0.60;;;;;;;0.06;85.00;102419.78;5104460;28;20031;-74
2023/01/21 07:18:16;;;;;;;0.55;0.55;;;;;;;0.04;85.17;102422.22;5104606;28;20020;-74
2023/01/21 07:20:41;;;;;;;0.60;0.60;;;;;;;-0.01;85.16;102406.59;5086327;28;20024;-74
2023/01/21 07:23:07;;;;;;;2.25;2.15;;;;;;;0.01;85.01;102408.34;5104440;28;20020;-74
2023/01/21 07:25:34;;;;;;;0.60;0.60;;;;;;;0.01;84.81;102411.81;5104375;28;20032;-74
2023/01/21 07:28:00;;;;;;;0.57;0.57;;;;;;;0.05;84.47;102420.56;5104351;28;20020;-78
2023/01/21 07:30:26;;;;;;;0.52;0.52;;;;;;;-0.01;84.28;102416.81;5086240;28;20023;-74
2023/01/21 07:32:51;;;;;;;0.50;0.50;;;;;;;-0.08;84.53;102408.63;5104193;28;20027;-73
2023/01/21 07:35:16;;;;;;;0.50;0.50;;;;;;;0.01;84.39;102424.56;5102854;28;20053;-74
2023/01/21 07:37:42;;;;;;;0.60;0.60;;;;;;;-0.04;84.48;102420.81;5086151;28;20106;-76
2023/01/21 07:40:08;;;;;;;0.50;0.50;;;;;;;0.03;84.34;102432.34;5102595;28;20040;-74
2023/01/21 07:42:33;;;;;;;0.60;0.60;;;;;;;0.01;84.21;102436.44;5102602;28;20036;-76
2023/01/21 07:45:01;;;;;;;0.60;0.60;;;;;;;-0.05;84.20;102431.81;5087445;28;20110;-73
2023/01/21 07:47:27;;;;;;;0.50;0.50;;;;;;;0.04;83.84;102440.09;5108664;28;20043;-73
2023/01/21 07:49:52;;;;;;;0.60;0.60;;;;;;;-0.06;83.85;102427.47;5108494;28;20020;-75
2023/01/21 07:52:18;;;;;;;0.60;0.60;;;;;;;-0.07;83.85;102431.72;5090080;28;20095;-73
2023/01/21 07:54:43;;;;;;;0.60;0.60;;;;;;;-0.07;83.94;102438.47;5106842;28;20027;-73
2023/01/21 07:57:09;;;;;;;0.50;0.50;;;;;;;-0.10;84.06;102434.06;5089843;28;20028;-75
2023/01/21 07:59:34;;;;;;;0.60;0.60;;;;;;;-0.10;84.29;102436.63;5108239;28;20411;-73
2023/01/21 08:01:59;;;;;;;0.60;0.60;;;;;;;-0.03;84.15;102440.44;5108120;28;20536;-73
2023/01/21 08:04:25;;;;;;;0.63;0.63;;;;;;;-0.05;84.27;102439.47;5089986;28;20589;-74
2023/01/21 08:06:55;;;;;;;0.60;0.60;;;;;;;0.00;84.00;102445.78;5089765;28;20356;-75
2023/01/21 08:09:24;;;;;;;0.50;0.50;;;;;;;-0.06;83.68;102438.59;5108207;28;20035;-76
2023/01/21 08:11:50;;;;;;;0.90;0.90;;;;;;;-0.03;83.75;102459.22;5107771;28;20468;-74
2023/01/21 08:14:16;;;;;;;0.77;0.77;;;;;;;-0.05;84.10;102460.78;5107965;28;20539;-75
2023/01/21 08:16:41;;;;;;;0.60;0.60;;;;;;;0.02;84.41;102474.00;5107782;28;20035;-74
2023/01/21 08:19:07;;;;;;;0.60;0.60;;;;;;;0.04;84.15;102474.97;5107737;28;20030;-73
2023/01/21 08:21:32;;;;;;;0.52;0.52;;;;;;;0.06;84.22;102489.63;5106381;28;20053;-74
2023/01/21 08:23:57;;;;;;;0.50;0.50;;;;;;;0.07;84.20;102498.16;5107672;28;20020;-74
2023/01/21 08:26:23;;;;;;;0.60;0.60;;;;;;;0.04;84.38;102501.41;5106214;28;20044;-73
2023/01/21 08:28:48;;;;;;;0.60;0.60;;;;;;;0.00;84.16;102509.66;5107621;28;20028;-74
2023/01/21 08:31:14;;;;;;;0.50;0.50;;;;;;;0.01;84.05;102518.16;5107644;28;20020;-75
2023/01/21 08:33:39;;;;;;;0.60;0.60;;;;;;;-0.07;83.71;102505.78;5088992;28;20016;-75
2023/01/21 08:36:07;;;;;;;0.50;0.50;;;;;;;-0.04;83.62;102510.19;5107412;28;20024;-73
2023/01/21 08:38:33;;;;;;;0.60;0.60;;;;;;;-0.10;83.31;102513.22;5106124;28;20024;-75
2023/01/21 08:40:58;;;;;;;0.60;0.60;;;;;;;-0.05;83.13;102519.50;5107466;28;20546;-74
2023/01/21 08:43:25;;;;;;;0.60;0.60;;;;;;;-0.07;83.00;102533.88;5107193;28;20043;-74
2023/01/21 08:45:51;;;;;;;0.60;0.60;;;;;;;-0.15;83.16;102525.66;5107224;28;20155;-73
2023/01/21 08:48:16;;;;;;;0.60;0.60;;;;;;;-0.16;82.99;102523.00;5105849;28;20040;-74
2023/01/21 08:50:42;;;;;;;0.68;0.68;;;;;;;-0.17;83.12;102526.31;5088937;28;20053;-74
2023/01/21 08:53:09;;;;;;;0.60;0.60;;;;;;;-0.15;83.37;102534.97;5107077;28;20058;-74
2023/01/21 08:55:35;;;;;;;0.60;0.60;;;;;;;-0.13;83.09;102525.78;5088433;28;20024;-73
2023/01/21 08:58:00;;;;;;;0.60;0.60;;;;;;;-0.15;83.27;102514.56;5105470;28;20055;-73
2023/01/21 09:00:26;;;;;;;0.55;0.55;;;;;;;-0.13;83.61;102516.44;5088750;28;20083;-73
2023/01/21 09:02:52;;;;;;;0.60;0.60;;;;;;;0.01;83.87;102531.84;5106935;28;20008;-73
2023/01/21 09:05:18;;;;;;;0.60;0.60;;;;;;;0.06;83.46;102535.59;5105304;28;20032;-73
2023/01/21 09:07:44;;;;;;;2.35;2.25;;;;;;;0.06;83.39;102529.59;5106923;28;20103;-74
2023/01/21 09:10:11;;;;;;;0.60;0.60;;;;;;;0.06;83.26;102529.59;5106938;28;20471;-71
2023/01/21 09:12:39;;;;;;;1.00;1.00;;;;;;;0.02;83.53;102533.59;5106508;28;20037;-71
2023/01/21 09:15:05;;;;;;;0.60;0.60;;;;;;;0.04;83.53;102536.25;5107033;28;20027;-70
2023/01/21 09:17:30;;;;;;;0.60;0.60;;;;;;;0.09;83.84;102542.59;5106823;28;20024;-70
2023/01/21 09:19:56;;;;;;;2.08;1.98;;;;;;;0.15;83.86;102549.78;5106747;28;20099;-71
2023/01/21 09:22:21;;;;;;;0.50;0.50;;;;;;;0.21;83.72;102555.31;5105185;28;20446;-66
2023/01/21 09:24:46;;;;;;;1.10;1.10;;;;;;;0.21;83.56;102556.19;5106587;28;20087;-69
2023/01/21 09:27:12;;;;;;;0.60;0.60;;;;;;;0.17;83.53;102554.22;5106243;28;20107;-74
2023/01/21 09:29:37;;;;;;;0.60;0.60;;;;;;;0.20;83.30;102568.88;5107100;28;20456;-74
2023/01/21 09:32:04;;;;;;;3.08;2.80;;;;;;;0.16;83.43;102575.41;5106891;28;20027;-75
2023/01/21 09:34:30;;;;;;;0.60;0.60;;;;;;;0.13;82.98;102570.09;5106586;28;20016;-74
2023/01/21 09:36:55;;;;;;;2.15;2.05;;;;;;;0.15;83.16;102571.09;5104940;28;20416;-73
2023/01/21 09:39:20;;;;;;;0.60;0.60;;;;;;;0.12;82.76;102563.22;5105078;28;20028;-73
2023/01/21 09:41:55;;;;;;;1.73;1.58;;;;;;;0.13;83.02;102571.78;5105465;28;20044;-74
2023/01/21 09:44:43;;;;;;;0.50;0.50;;;;;;;0.11;83.05;102572.56;5105022;28;20024;-75
2023/01/21 09:47:18;;;;;;;0.60;0.60;;;;;;;0.11;82.73;102577.66;5105718;28;20023;-73
2023/01/21 09:50:07;;;;;;;0.60;0.60;;;;;;;0.06;82.72;102576.47;5106096;28;20024;-74
2023/01/21 09:52:40;;;;;;;0.60;0.60;;;;;;;0.04;82.87;102587.34;5080761;28;20106;-74
2023/01/21 09:55:21;;;;;;;0.60;0.60;;;;;;;0.00;83.06;102586.25;5106182;28;20024;-76
2023/01/21 09:58:24;;;;;;;0.80;0.80;;;;;;;0.04;83.21;102600.13;5087890;28;20137;-76
2023/01/21 10:00:56;;;;;;;0.60;0.60;;;;;;;0.01;83.02;102597.34;5087823;28;20027;-75
2023/01/21 10:03:35;;;;;;;0.65;0.65;;;;;;;-0.03;82.95;102609.91;5105885;28;20019;-74
2023/01/21 10:06:22;;;;;;;0.40;0.40;;;;;;;-0.04;82.68;102610.69;5104542;28;20028;-73
2023/01/21 10:09:05;;;;;;;0.60;0.60;;;;;;;-0.04;82.60;102609.78;5086693;28;20387;-74
2023/01/21 10:11:52;;;;;;;0.60;0.60;;;;;;;-0.17;82.41;102606.38;5105519;28;20024;-73
2023/01/21 10:14:35;;;;;;;0.60;0.60;;;;;;;-0.18;82.64;102611.38;5105728;28;20020;-73
2023/01/21 10:17:33;;;;;;;0.70;0.70;;;;;;;-0.26;83.04;102609.13;5104309;28;20045;-73
2023/01/21 10:20:08;;;;;;;0.70;0.70;;;;;;;-0.24;82.97;102605.81;5045997;28;20037;-75
2023/01/21 10:22:34;;;;;;;0.60;0.60;;;;;;;-0.23;83.04;102602.47;5062730;28;20032;-73
2023/01/21 10:25:08;;;;;;;0.60;0.60;;;;;;;-0.22;82.95;102601.72;5062910;28;20031;-73
2023/01/21 10:27:37;;;;;;;0.60;0.60;;;;;;;-0.23;83.02;102597.38;5045670;28;20029;-73
2023/01/21 10:30:19;;;;;;;0.60;0.60;;;;;;;-0.22;82.82;102594.06;5062637;28;20139;-72
2023/01/21 10:32:49;;;;;;;0.60;0.60;;;;;;;-0.24;83.07;102593.94;5061900;28;20029;-73
2023/01/21 10:35:21;;;;;;;0.60;0.60;;;;;;;-0.34;83.20;102573.63;5045535;28;20131;-74
2023/01/21 10:38:01;;;;;;;0.63;0.63;;;;;;;-0.18;83.50;102585.84;5062473;28;20044;-75
2023/01/21 10:40:56;;;;;;;0.65;0.65;;;;;;;-0.06;83.33;102596.00;5061828;28;20049;-75
2023/01/21 10:43:44;;;;;;;0.70;0.70;;;;;;;-0.02;83.39;102592.91;5054988;28;20098;-74
2023/01/21 10:46:22;;;;;;;0.57;0.57;;;;;;;0.01;83.24;102592.25;5062358;28;20467;-74
2023/01/21 10:48:51;;;;;;;0.60;0.60;;;;;;;0.07;83.12;102591.00;5062084;28;20447;-74
2023/01/21 10:51:23;;;;;;;0.60;0.60;;;;;;;0.13;82.40;102587.13;5045479;28;20033;-73
2023/01/21 10:53:49;;;;;;;0.60;0.60;;;;;;;0.05;82.08;102592.56;5061993;28;20029;-74
2023/01/21 10:56:38;;;;;;;0.60;0.60;;;;;;;0.02;82.38;102588.91;5077679;28;20044;-73
2023/01/21 10:59:26;;;;;;;0.60;0.60;;;;;;;0.04;82.16;102589.91;5104929;28;20027;-74
2023/01/21 11:02:09;;;;;;;0.70;0.70;;;;;;;-0.01;82.14;102587.91;5104816;28;20024;-75
2023/01/21 11:04:39;;;;;;;0.65;0.65;;;;;;;-0.05;82.14;102582.50;5104819;28;20040;-73
2023/01/21 11:07:08;;;;;;;0.60;0.60;;;;;;;-0.04;82.53;102590.25;5104965;28;20070;-73
2023/01/21 11:09:38;;;;;;;0.60;0.60;;;;;;;0.05;82.01;102586.59;5104690;28;20024;-75
2023/01/21 11:12:03;;;;;;;0.60;0.60;;;;;;;0.01;82.14;102589.69;5103352;28;20024;-73
2023/01/21 11:14:29;;;;;;;0.70;0.70;;;;;;;-0.06;82.26;102584.13;5103394;28;20028;-73
2023/01/21 11:16:54;;;;;;;0.52;0.52;;;;;;;-0.02;82.61;102582.69;5104771;28;20074;-73
2023/01/21 11:19:23;;;;;;;0.50;0.50;;;;;;;0.19;82.90;102585.00;5104496;28;20031;-75
2023/01/21 11:22:24;;;;;;;0.63;0.63;;;;;;;0.27;82.83;102588.06;5104686;28;20031;-73
2023/01/21 11:24:50;;;;;;;0.57;0.57;;;;;;;0.31;82.37;102592.59;5086327;28;20020;-74
2023/01/21 11:27:21;;;;;;;0.60;0.60;;;;;;;0.20;82.57;102585.09;5104319;28;20083;-75
2023/01/21 11:29:49;;;;;;;0.70;0.70;;;;;;;0.25;82.67;102593.06;5104560;28;20080;-74
2023/01/21 11:32:26;;;;;;;0.60;0.60;;;;;;;0.27;82.72;102594.09;5086324;28;20039;-74
2023/01/21 11:35:20;;;;;;;0.60;0.60;;;;;;;0.34;82.98;102597.94;5104494;28;20024;-73
2023/01/21 11:37:46;;;;;;;0.60;0.60;;;;;;;0.34;82.59;102603.03;5104435;28;20117;-74
2023/01/21 11:40:22;;;;;;;1.83;1.73;;;;;;;0.30;82.39;102608.72;5102853;28;20056;-72
2023/01/21 11:42:50;;;;;;;0.60;0.60;;;;;;;0.22;82.19;102598.84;5102645;28;20040;-73
2023/01/21 11:45:32;;;;;;;1.08;1.08;;;;;;;0.17;82.14;102614.63;5102951;28;20039;-73
2023/01/21 11:47:59;;;;;;;0.73;0.73;;;;;;;0.08;82.20;102610.66;5104509;28;20023;-74